sensor_id;sensor_type;location;lat;lon;timestamp;pressure;altitude;pressure_sealevel;temperature;humidity
35704;BME280;21820;51.112;13.762;2023-05-29T00:01:30;99676.53;;;24.32;41.02
35704;BME280;21820;51.112;13.762;2023-05-29T00:03:56;99679.84;;;24.34;41.30
35704;BME280;21820;51.112;13.762;2023-05-29T00:06:22;99685.59;;;24.37;41.07
35704;BME280;21820;51.112;13.762;2023-05-29T00:08:47;99686.41;;;24.38;40.96
35704;BME280;21820;51.112;13.762;2023-05-29T00:11:12;99690.88;;;24.37;41.08
35704;BME280;21820;51.112;13.762;2023-05-29T00:13:38;99692.50;;;24.38;40.73
35704;BME280;21820;51.112;13.762;2023-05-29T00:16:03;99690.19;;;24.35;41.44
35704;BME280;21820;51.112;13.762;2023-05-29T00:18:29;99679.19;;;24.40;40.90
35704;BME280;21820;51.112;13.762;2023-05-29T00:20:55;99680.88;;;24.41;40.90
35704;BME280;21820;51.112;13.762;2023-05-29T00:23:21;99683.63;;;24.39;41.42
35704;BME280;21820;51.112;13.762;2023-05-29T00:25:46;99680.19;;;24.39;41.33
35704;BME280;21820;51.112;13.762;2023-05-29T00:28:12;99656.00;;;24.27;41.06
35704;BME280;21820;51.112;13.762;2023-05-29T00:30:38;99676.06;;;24.36;41.50
35704;BME280;21820;51.112;13.762;2023-05-29T00:33:03;99676.06;;;24.36;41.01
35704;BME280;21820;51.112;13.762;2023-05-29T00:35:29;99677.06;;;24.35;40.62
35704;BME280;21820;51.112;13.762;2023-05-29T00:37:54;99685.81;;;24.44;40.96
35704;BME280;21820;51.112;13.762;2023-05-29T00:40:20;99662.72;;;24.30;40.95
35704;BME280;21820;51.112;13.762;2023-05-29T00:42:45;99682.97;;;24.37;40.75
35704;BME280;21820;51.112;13.762;2023-05-29T00:45:10;99680.72;;;24.42;41.26
35704;BME280;21820;51.112;13.762;2023-05-29T00:47:38;99673.94;;;24.40;40.91
35704;BME280;21820;51.112;13.762;2023-05-29T00:50:04;99670.50;;;24.39;40.93
35704;BME280;21820;51.112;13.762;2023-05-29T00:52:30;99671.47;;;24.38;41.26
35704;BME280;21820;51.112;13.762;2023-05-29T00:54:56;99674.94;;;24.39;40.79
35704;BME280;21820;51.112;13.762;2023-05-29T00:57:22;99669.84;;;24.37;40.63
35704;BME280;21820;51.112;13.762;2023-05-29T00:59:48;99670.66;;;24.38;41.26
35704;BME280;21820;51.112;13.762;2023-05-29T01:02:16;99677.06;;;24.35;41.01
35704;BME280;21820;51.112;13.762;2023-05-29T01:04:42;99671.47;;;24.38;40.97
35704;BME280;21820;51.112;13.762;2023-05-29T01:07:09;99661.66;;;24.40;40.90
35704;BME280;21820;51.112;13.762;2023-05-29T01:09:34;99664.91;;;24.34;41.26
35704;BME280;21820;51.112;13.762;2023-05-29T01:12:33;99662.13;;;24.36;41.09
35704;BME280;21820;51.112;13.762;2023-05-29T01:20:41;99665.56;;;24.36;41.20
35704;BME280;21820;51.112;13.762;2023-05-29T01:28:35;99660.13;;;24.38;40.88
35704;BME280;21820;51.112;13.762;2023-05-29T01:31:03;99674.78;;;24.40;41.20
35704;BME280;21820;51.112;13.762;2023-05-29T01:33:29;99662.56;;;24.31;41.23
35704;BME280;21820;51.112;13.762;2023-05-29T01:35:54;99675.47;;;24.42;41.21
35704;BME280;21820;51.112;13.762;2023-05-29T01:38:20;99680.03;;;24.40;41.20
35704;BME280;21820;51.112;13.762;2023-05-29T01:40:45;99673.94;;;24.40;40.65
35704;BME280;21820;51.112;13.762;2023-05-29T01:43:13;99660.25;;;24.28;41.10
35704;BME280;21820;51.112;13.762;2023-05-29T01:45:39;99678.84;;;24.35;40.55
35704;BME280;21820;51.112;13.762;2023-05-29T01:48:05;99668.19;;;24.36;41.30
35704;BME280;21820;51.112;13.762;2023-05-29T01:50:31;99661.97;;;24.37;41.15
35704;BME280;21820;51.112;13.762;2023-05-29T01:52:56;99668.00;;;24.38;40.95
35704;BME280;21820;51.112;13.762;2023-05-29T01:55:21;99667.06;;;24.39;40.79
35704;BME280;21820;51.112;13.762;2023-05-29T01:57:47;99671.47;;;24.38;40.60
35704;BME280;21820;51.112;13.762;2023-05-29T02:00:14;99671.16;;;24.41;41.27
35704;BME280;21820;51.112;13.762;2023-05-29T02:02:41;99667.84;;;24.39;40.57
35704;BME280;21820;51.112;13.762;2023-05-29T02:05:08;99664.28;;;24.40;40.64
35704;BME280;21820;51.112;13.762;2023-05-29T02:07:36;99671.47;;;24.38;40.92
35704;BME280;21820;51.112;13.762;2023-05-29T02:10:05;99670.50;;;24.39;40.46
35704;BME280;21820;51.112;13.762;2023-05-29T02:12:30;99678.88;;;24.43;40.87
35704;BME280;21820;51.112;13.762;2023-05-29T02:14:56;99669.84;;;24.37;41.29
35704;BME280;21820;51.112;13.762;2023-05-29T02:17:22;99672.31;;;24.39;40.60
35704;BME280;21820;51.112;13.762;2023-05-29T02:19:47;99672.16;;;24.40;40.64
35704;BME280;21820;51.112;13.762;2023-05-29T02:22:12;99673.94;;;24.40;40.65
35704;BME280;21820;51.112;13.762;2023-05-29T02:24:38;99677.72;;;24.37;41.04
35704;BME280;21820;51.112;13.762;2023-05-29T02:27:03;99682.81;;;24.39;40.75
35704;BME280;21820;51.112;13.762;2023-05-29T02:29:29;99681.00;;;24.39;40.54
35704;BME280;21820;51.112;13.762;2023-05-29T02:31:54;99678.38;;;24.39;40.97
35704;BME280;21820;51.112;13.762;2023-05-29T02:34:19;99660.59;;;24.33;40.45
35704;BME280;21820;51.112;13.762;2023-05-29T02:36:48;99667.81;;;24.31;41.19
35704;BME280;21820;51.112;13.762;2023-05-29T02:39:13;99681.69;;;24.41;40.63
35704;BME280;21820;51.112;13.762;2023-05-29T02:41:38;99698.78;;;24.45;41.08
35704;BME280;21820;51.112;13.762;2023-05-29T02:44:04;99697.75;;;24.38;41.29
35704;BME280;21820;51.112;13.762;2023-05-29T02:46:29;99679.31;;;24.30;41.15
35704;BME280;21820;51.112;13.762;2023-05-29T02:48:55;99704.66;;;24.39;40.95
35704;BME280;21820;51.112;13.762;2023-05-29T02:51:20;99710.91;;;24.38;40.90
35704;BME280;21820;51.112;13.762;2023-05-29T02:53:45;99711.38;;;24.34;40.71
35704;BME280;21820;51.112;13.762;2023-05-29T02:56:11;99714.34;;;24.39;41.05
35704;BME280;21820;51.112;13.762;2023-05-29T02:58:37;99720.13;;;24.42;40.72
35704;BME280;21820;51.112;13.762;2023-05-29T03:01:02;99722.25;;;24.39;41.02
35704;BME280;21820;51.112;13.762;2023-05-29T03:03:29;99724.72;;;24.40;40.67
35704;BME280;21820;51.112;13.762;2023-05-29T03:05:55;99713.47;;;24.30;41.20
35704;BME280;21820;51.112;13.762;2023-05-29T03:08:20;99721.09;;;24.41;40.94
35704;BME280;21820;51.112;13.762;2023-05-29T03:10:46;99725.41;;;24.42;41.03
35704;BME280;21820;51.112;13.762;2023-05-29T03:13:12;99731.81;;;24.48;41.15
35704;BME280;21820;51.112;13.762;2023-05-29T03:15:38;99732.28;;;24.43;40.95
35704;BME280;21820;51.112;13.762;2023-05-29T03:18:03;99728.97;;;24.41;40.63
35704;BME280;21820;51.112;13.762;2023-05-29T03:20:28;99720.78;;;24.44;41.19
35704;BME280;21820;51.112;13.762;2023-05-29T03:22:54;99726.19;;;24.43;40.95
35704;BME280;21820;51.112;13.762;2023-05-29T03:25:21;99721.78;;;24.43;40.57
35704;BME280;21820;51.112;13.762;2023-05-29T03:27:47;99736.72;;;24.43;40.84
35704;BME280;21820;51.112;13.762;2023-05-29T03:30:12;99713.78;;;24.27;40.88
35704;BME280;21820;51.112;13.762;2023-05-29T03:32:38;99722.91;;;24.41;41.35
35704;BME280;21820;51.112;13.762;2023-05-29T03:35:03;99728.19;;;24.41;41.18
35704;BME280;21820;51.112;13.762;2023-05-29T03:37:29;99723.41;;;24.44;41.06
35704;BME280;21820;51.112;13.762;2023-05-29T03:39:55;99729.81;;;24.42;40.65
35704;BME280;21820;51.112;13.762;2023-05-29T03:42:20;99733.28;;;24.42;41.11
35704;BME280;21820;51.112;13.762;2023-05-29T03:44:46;99729.13;;;24.40;40.64
35704;BME280;21820;51.112;13.762;2023-05-29T03:47:11;99735.59;;;24.45;41.23
35704;BME280;21820;51.112;13.762;2023-05-29T03:49:36;99739.81;;;24.38;41.26
35704;BME280;21820;51.112;13.762;2023-05-29T03:52:02;99732.28;;;24.43;40.70
35704;BME280;21820;51.112;13.762;2023-05-29T03:54:28;99734.06;;;24.43;40.89
35704;BME280;21820;51.112;13.762;2023-05-29T03:56:53;99737.53;;;24.43;40.63
35704;BME280;21820;51.112;13.762;2023-05-29T03:59:18;99734.91;;;24.43;41.21
35704;BME280;21820;51.112;13.762;2023-05-29T04:01:44;99735.38;;;24.39;41.04
35704;BME280;21820;51.112;13.762;2023-05-29T04:04:09;99727.97;;;24.34;40.84
35704;BME280;21820;51.112;13.762;2023-05-29T04:06:35;99734.72;;;24.37;40.46
35704;BME280;21820;51.112;13.762;2023-05-29T04:09:06;99734.41;;;24.40;40.64
35704;BME280;21820;51.112;13.762;2023-05-29T04:11:35;99740.31;;;24.42;40.95
35704;BME280;21820;51.112;13.762;2023-05-29T04:14:01;99751.97;;;24.39;40.55
35704;BME280;21820;51.112;13.762;2023-05-29T04:16:27;99751.97;;;24.39;40.67
35704;BME280;21820;51.112;13.762;2023-05-29T04:18:53;99763.00;;;24.43;40.89
35704;BME280;21820;51.112;13.762;2023-05-29T04:21:18;99760.22;;;24.44;41.25
35704;BME280;21820;51.112;13.762;2023-05-29T04:23:43;99767.44;;;24.42;41.23
35704;BME280;21820;51.112;13.762;2023-05-29T04:26:09;99762.78;;;24.36;41.13
35704;BME280;21820;51.112;13.762;2023-05-29T04:28:35;99760.84;;;24.38;40.74
35704;BME280;21820;51.112;13.762;2023-05-29T04:31:03;99760.69;;;24.40;41.06
35704;BME280;21820;51.112;13.762;2023-05-29T04:33:28;99749.78;;;24.35;41.01
35704;BME280;21820;51.112;13.762;2023-05-29T04:35:54;99772.03;;;24.40;41.10
35704;BME280;21820;51.112;13.762;2023-05-29T04:38:20;99764.13;;;24.40;40.83
35704;BME280;21820;51.112;13.762;2023-05-29T04:40:50;99757.16;;;24.31;40.65
35704;BME280;21820;51.112;13.762;2023-05-29T04:43:15;99786.50;;;24.44;40.94
35704;BME280;21820;51.112;13.762;2023-05-29T04:45:41;99774.13;;;24.37;40.82
35704;BME280;21820;51.112;13.762;2023-05-29T04:48:08;99776.28;;;24.41;41.18
35704;BME280;21820;51.112;13.762;2023-05-29T04:50:33;99772.53;;;24.44;40.79
35704;BME280;21820;51.112;13.762;2023-05-29T04:52:59;99775.00;;;24.45;40.87
35704;BME280;21820;51.112;13.762;2023-05-29T04:55:25;99782.38;;;24.42;41.25
35704;BME280;21820;51.112;13.762;2023-05-29T04:57:51;99776.28;;;24.41;41.11
35704;BME280;21820;51.112;13.762;2023-05-29T05:00:17;99786.50;;;24.44;40.84
35704;BME280;21820;51.112;13.762;2023-05-29T05:02:43;99779.59;;;24.43;40.91
35704;BME280;21820;51.112;13.762;2023-05-29T05:05:09;99786.22;;;24.48;40.59
35704;BME280;21820;51.112;13.762;2023-05-29T05:07:35;99782.91;;;24.45;41.18
35704;BME280;21820;51.112;13.762;2023-05-29T05:10:01;99762.41;;;24.31;40.93
35704;BME280;21820;51.112;13.762;2023-05-29T05:12:26;99782.91;;;24.45;40.51
35704;BME280;21820;51.112;13.762;2023-05-29T05:14:51;99759.78;;;24.31;40.38
35704;BME280;21820;51.112;13.762;2023-05-29T05:17:16;99776.13;;;24.43;41.23
35704;BME280;21820;51.112;13.762;2023-05-29T05:19:42;99779.91;;;24.40;41.26
35704;BME280;21820;51.112;13.762;2023-05-29T05:22:07;99772.69;;;24.42;40.55
35704;BME280;21820;51.112;13.762;2023-05-29T05:24:33;99773.81;;;24.40;41.26
35704;BME280;21820;51.112;13.762;2023-05-29T05:26:59;99782.69;;;24.39;40.90
35704;BME280;21820;51.112;13.762;2023-05-29T05:29:25;99781.53;;;24.41;41.14
35704;BME280;21820;51.112;13.762;2023-05-29T05:31:50;99772.94;;;24.31;40.87
35704;BME280;21820;51.112;13.762;2023-05-29T05:34:15;99775.28;;;24.34;41.32
35704;BME280;21820;51.112;13.762;2023-05-29T05:36:41;99779.59;;;24.43;41.08
35704;BME280;21820;51.112;13.762;2023-05-29T05:39:06;99783.81;;;24.36;41.19
35704;BME280;21820;51.112;13.762;2023-05-29T05:41:32;99785.84;;;24.42;40.72
35704;BME280;21820;51.112;13.762;2023-05-29T05:43:57;99787.47;;;24.43;40.44
35704;BME280;21820;51.112;13.762;2023-05-29T05:46:22;99790.94;;;24.44;41.16
35704;BME280;21820;51.112;13.762;2023-05-29T05:48:48;99784.84;;;24.43;40.96
35704;BME280;21820;51.112;13.762;2023-05-29T05:51:13;99796.34;;;24.42;41.00
35704;BME280;21820;51.112;13.762;2023-05-29T05:53:39;99793.41;;;24.45;40.53
35704;BME280;21820;51.112;13.762;2023-05-29T05:56:04;99774.44;;;24.34;41.14
35704;BME280;21820;51.112;13.762;2023-05-29T05:58:30;99789.44;;;24.41;40.81
35704;BME280;21820;51.112;13.762;2023-05-29T06:00:55;99799.56;;;24.36;41.05
35704;BME280;21820;51.112;13.762;2023-05-29T06:03:22;99784.72;;;24.27;41.26
35704;BME280;21820;51.112;13.762;2023-05-29T06:05:48;99807.03;;;24.41;40.94
35704;BME280;21820;51.112;13.762;2023-05-29T06:08:13;99800.94;;;24.40;41.23
35704;BME280;21820;51.112;13.762;2023-05-29T06:10:40;99799.56;;;24.36;40.70
35704;BME280;21820;51.112;13.762;2023-05-29T06:13:05;99797.63;;;24.38;40.81
35704;BME280;21820;51.112;13.762;2023-05-29T06:15:30;99809.78;;;24.39;40.89
35704;BME280;21820;51.112;13.762;2023-05-29T06:17:56;99804.25;;;24.42;40.63
35704;BME280;21820;51.112;13.762;2023-05-29T06:20:21;99803.56;;;24.40;41.18
35704;BME280;21820;51.112;13.762;2023-05-29T06:22:48;99813.09;;;24.41;41.14
35704;BME280;21820;51.112;13.762;2023-05-29T06:25:16;99812.28;;;24.41;40.63
35704;BME280;21820;51.112;13.762;2023-05-29T06:27:42;99812.78;;;24.44;40.78
35704;BME280;21820;51.112;13.762;2023-05-29T06:30:08;99795.78;;;24.31;40.48
35704;BME280;21820;51.112;13.762;2023-05-29T06:32:33;99814.59;;;24.44;40.95
35704;BME280;21820;51.112;13.762;2023-05-29T06:34:58;99816.38;;;24.43;40.73
35704;BME280;21820;51.112;13.762;2023-05-29T06:37:24;99814.75;;;24.42;40.55
35704;BME280;21820;51.112;13.762;2023-05-29T06:39:49;99806.88;;;24.42;40.60
35704;BME280;21820;51.112;13.762;2023-05-29T06:42:15;99811.44;;;24.40;41.05
35704;BME280;21820;51.112;13.762;2023-05-29T06:44:40;99815.72;;;24.41;40.82
35704;BME280;21820;51.112;13.762;2023-05-29T06:47:05;99819.69;;;24.45;40.55
35704;BME280;21820;51.112;13.762;2023-05-29T06:49:31;99813.25;;;24.40;41.19
35704;BME280;21820;51.112;13.762;2023-05-29T06:51:57;99810.91;;;24.37;40.90
35704;BME280;21820;51.112;13.762;2023-05-29T06:54:22;99811.75;;;24.37;41.27
35704;BME280;21820;51.112;13.762;2023-05-29T06:56:47;99825.53;;;24.39;40.63
35704;BME280;21820;51.112;13.762;2023-05-29T06:59:13;99822.78;;;24.41;41.01
35704;BME280;21820;51.112;13.762;2023-05-29T07:01:38;99817.38;;;24.42;40.89
35704;BME280;21820;51.112;13.762;2023-05-29T07:04:03;99814.97;;;24.31;40.80
35704;BME280;21820;51.112;13.762;2023-05-29T07:06:29;99820.16;;;24.41;40.86
35704;BME280;21820;51.112;13.762;2023-05-29T07:08:54;99809.06;;;24.29;41.16
35704;BME280;21820;51.112;13.762;2023-05-29T07:11:20;99832.47;;;24.40;41.33
35704;BME280;21820;51.112;13.762;2023-05-29T07:13:45;99832.31;;;24.42;41.03
35704;BME280;21820;51.112;13.762;2023-05-29T07:16:11;99829.16;;;24.38;40.98
35704;BME280;21820;51.112;13.762;2023-05-29T07:18:36;99837.56;;;24.42;40.58
35704;BME280;21820;51.112;13.762;2023-05-29T07:21:01;99829.69;;;24.42;41.32
35704;BME280;21820;51.112;13.762;2023-05-29T07:23:27;99831.84;;;24.46;40.79
35704;BME280;21820;51.112;13.762;2023-05-29T07:25:52;99830.38;;;24.44;41.15
35704;BME280;21820;51.112;13.762;2023-05-29T07:28:17;99830.81;;;24.39;40.94
35704;BME280;21820;51.112;13.762;2023-05-29T07:30:43;99831.09;;;24.36;41.05
35704;BME280;21820;51.112;13.762;2023-05-29T07:33:08;99817.59;;;24.31;40.63
35704;BME280;21820;51.112;13.762;2023-05-29T07:35:34;99836.06;;;24.39;41.18
35704;BME280;21820;51.112;13.762;2023-05-29T07:38:00;99839.88;;;24.45;40.93
35704;BME280;21820;51.112;13.762;2023-05-29T07:40:25;99834.09;;;24.41;40.74
35704;BME280;21820;51.112;13.762;2023-05-29T07:42:51;99841.47;;;24.38;41.20
35704;BME280;21820;51.112;13.762;2023-05-29T07:45:16;99839.06;;;24.44;40.87
35704;BME280;21820;51.112;13.762;2023-05-29T07:47:42;99843.66;;;24.42;41.18
35704;BME280;21820;51.112;13.762;2023-05-29T07:50:08;99842.00;;;24.41;40.83
35704;BME280;21820;51.112;13.762;2023-05-29T07:52:34;99843.94;;;24.39;41.03
35704;BME280;21820;51.112;13.762;2023-05-29T07:55:00;99853.19;;;24.43;41.15
35704;BME280;21820;51.112;13.762;2023-05-29T07:57:27;99847.94;;;24.43;40.77
35704;BME280;21820;51.112;13.762;2023-05-29T07:59:52;99844.63;;;24.41;41.26
35704;BME280;21820;51.112;13.762;2023-05-29T08:02:18;99850.56;;;24.43;40.81
35704;BME280;21820;51.112;13.762;2023-05-29T08:04:43;99853.50;;;24.40;41.25
35704;BME280;21820;51.112;13.762;2023-05-29T08:07:08;99843.44;;;24.36;41.01
35704;BME280;21820;51.112;13.762;2023-05-29T08:09:35;99850.88;;;24.40;40.58
35704;BME280;21820;51.112;13.762;2023-05-29T08:12:00;99849.88;;;24.41;40.38
35704;BME280;21820;51.112;13.762;2023-05-29T08:14:26;99849.88;;;24.41;41.39
35704;BME280;21820;51.112;13.762;2023-05-29T08:16:51;99855.81;;;24.43;40.89
35704;BME280;21820;51.112;13.762;2023-05-29T08:19:17;99847.09;;;24.43;40.85
35704;BME280;21820;51.112;13.762;2023-05-29T08:21:42;99851.53;;;24.42;40.79
35704;BME280;21820;51.112;13.762;2023-05-29T08:24:07;99838.09;;;24.28;41.22
35704;BME280;21820;51.112;13.762;2023-05-29T08:26:34;99854.69;;;24.46;41.37
35704;BME280;21820;51.112;13.762;2023-05-29T08:29:00;99849.06;;;24.41;41.17
35704;BME280;21820;51.112;13.762;2023-05-29T08:31:25;99858.75;;;24.40;40.89
35704;BME280;21820;51.112;13.762;2023-05-29T08:33:52;99850.56;;;24.43;41.23
35704;BME280;21820;51.112;13.762;2023-05-29T08:36:17;99844.31;;;24.44;40.83
35704;BME280;21820;51.112;13.762;2023-05-29T08:38:43;99851.25;;;24.45;41.16
35704;BME280;21820;51.112;13.762;2023-05-29T08:41:12;99837.72;;;24.40;41.21
35704;BME280;21820;51.112;13.762;2023-05-29T08:43:41;99848.25;;;24.40;40.89
35704;BME280;21820;51.112;13.762;2023-05-29T08:46:07;99839.06;;;24.44;40.56
35704;BME280;21820;51.112;13.762;2023-05-29T08:48:32;99845.81;;;24.47;41.02
35704;BME280;21820;51.112;13.762;2023-05-29T08:51:02;99825.06;;;24.36;40.50
35704;BME280;21820;51.112;13.762;2023-05-29T08:53:27;99838.09;;;24.45;40.74
35704;BME280;21820;51.112;13.762;2023-05-29T08:55:53;99815.66;;;24.33;40.99
35704;BME280;21820;51.112;13.762;2023-05-29T08:58:20;99839.38;;;24.41;40.59
35704;BME280;21820;51.112;13.762;2023-05-29T09:00:47;99844.09;;;24.38;41.05
35704;BME280;21820;51.112;13.762;2023-05-29T09:03:13;99844.47;;;24.43;41.23
35704;BME280;21820;51.112;13.762;2023-05-29T09:05:39;99831.63;;;24.40;41.15
35704;BME280;21820;51.112;13.762;2023-05-29T09:08:10;99833.44;;;24.39;41.15
35704;BME280;21820;51.112;13.762;2023-05-29T09:10:41;99827.38;;;24.39;40.87
35704;BME280;21820;51.112;13.762;2023-05-29T09:13:06;99839.66;;;24.38;40.88
35704;BME280;21820;51.112;13.762;2023-05-29T09:15:34;99841.69;;;24.44;40.37
35704;BME280;21820;51.112;13.762;2023-05-29T09:17:59;99837.56;;;24.42;40.62
35704;BME280;21820;51.112;13.762;2023-05-29T09:20:26;99833.38;;;24.31;40.70
35704;BME280;21820;51.112;13.762;2023-05-29T09:22:59;99841.03;;;24.42;40.87
35704;BME280;21820;51.112;13.762;2023-05-29T09:25:28;99833.44;;;24.39;41.29
35704;BME280;21820;51.112;13.762;2023-05-29T09:30:40;99849.19;;;24.39;40.88
35704;BME280;21820;51.112;13.762;2023-05-29T09:33:07;99851.25;;;24.45;40.69
35704;BME280;21820;51.112;13.762;2023-05-29T09:35:36;99827.59;;;24.28;40.90
35704;BME280;21820;51.112;13.762;2023-05-29T09:38:02;99848.91;;;24.42;41.09
35704;BME280;21820;51.112;13.762;2023-05-29T09:40:31;99849.56;;;24.44;40.46
35704;BME280;21820;51.112;13.762;2023-05-29T09:43:11;99850.25;;;24.46;41.37
35704;BME280;21820;51.112;13.762;2023-05-29T09:45:38;99849.56;;;24.44;40.83
35704;BME280;21820;51.112;13.762;2023-05-29T09:48:05;99850.72;;;24.42;40.49
35704;BME280;21820;51.112;13.762;2023-05-29T09:50:30;99844.47;;;24.43;40.76
35704;BME280;21820;51.112;13.762;2023-05-29T09:52:56;99841.69;;;24.44;40.93
35704;BME280;21820;51.112;13.762;2023-05-29T09:55:23;99839.38;;;24.41;41.39
35704;BME280;21820;51.112;13.762;2023-05-29T09:57:53;99831.94;;;24.37;41.22
35704;BME280;21820;51.112;13.762;2023-05-29T10:00:19;99837.72;;;24.40;40.54
35704;BME280;21820;51.112;13.762;2023-05-29T10:02:45;99817.59;;;24.31;40.42
35704;BME280;21820;51.112;13.762;2023-05-29T10:05:10;99823.06;;;24.38;41.14
35704;BME280;21820;51.112;13.762;2023-05-29T10:07:39;99833.31;;;24.41;41.13
35704;BME280;21820;51.112;13.762;2023-05-29T10:10:11;99832.16;;;24.43;40.86
35704;BME280;21820;51.112;13.762;2023-05-29T10:12:38;99827.22;;;24.40;41.14
35704;BME280;21820;51.112;13.762;2023-05-29T10:15:12;99835.09;;;24.40;40.65
35704;BME280;21820;51.112;13.762;2023-05-29T10:17:44;99839.06;;;24.44;40.81
35704;BME280;21820;51.112;13.762;2023-05-29T10:20:13;99835.09;;;24.40;40.79
35704;BME280;21820;51.112;13.762;2023-05-29T10:22:45;99839.22;;;24.43;41.19
35704;BME280;21820;51.112;13.762;2023-05-29T10:25:13;99835.78;;;24.42;40.80
35704;BME280;21820;51.112;13.762;2023-05-29T10:27:38;99843.81;;;24.41;41.11
35704;BME280;21820;51.112;13.762;2023-05-29T10:30:13;99834.78;;;24.43;40.99
35704;BME280;21820;51.112;13.762;2023-05-29T10:33:00;99837.41;;;24.43;41.07
35704;BME280;21820;51.112;13.762;2023-05-29T10:35:44;99831.78;;;24.38;41.15
35704;BME280;21820;51.112;13.762;2023-05-29T10:38:13;99833.53;;;24.48;41.02
35704;BME280;21820;51.112;13.762;2023-05-29T10:40:44;99837.72;;;24.40;40.84
35704;BME280;21820;51.112;13.762;2023-05-29T10:43:30;99831.78;;;24.38;40.48
35704;BME280;21820;51.112;13.762;2023-05-29T10:45:57;99828.53;;;24.44;40.52
35704;BME280;21820;51.112;13.762;2023-05-29T10:50:54;99822.47;;;24.44;40.85
35704;BME280;21820;51.112;13.762;2023-05-29T10:53:24;99808.44;;;24.35;41.16
35704;BME280;21820;51.112;13.762;2023-05-29T10:55:52;99829.06;;;24.48;40.43
35704;BME280;21820;51.112;13.762;2023-05-29T10:58:19;99832.16;;;24.43;40.78
35704;BME280;21820;51.112;13.762;2023-05-29T11:00:45;99826.91;;;24.43;40.94
35704;BME280;21820;51.112;13.762;2023-05-29T11:03:14;99825.25;;;24.42;40.76
35704;BME280;21820;51.112;13.762;2023-05-29T11:06:02;99804.47;;;24.31;40.65
35704;BME280;21820;51.112;13.762;2023-05-29T11:08:33;99819.63;;;24.37;40.89
35704;BME280;21820;51.112;13.762;2023-05-29T11:11:03;99818.03;;;24.44;40.79
35704;BME280;21820;51.112;13.762;2023-05-29T11:13:35;99817.53;;;24.41;40.57
35704;BME280;21820;51.112;13.762;2023-05-29T11:18:44;99811.13;;;24.43;40.94
35704;BME280;21820;51.112;13.762;2023-05-29T11:23:47;99817.38;;;24.42;41.27
35704;BME280;21820;51.112;13.762;2023-05-29T11:26:13;99811.13;;;24.43;40.92
35704;BME280;21820;51.112;13.762;2023-05-29T11:28:39;99809.78;;;24.39;40.50
35704;BME280;21820;51.112;13.762;2023-05-29T11:31:08;99818.34;;;24.41;40.73
35704;BME280;21820;51.112;13.762;2023-05-29T11:33:39;99819.69;;;24.45;40.77
35704;BME280;21820;51.112;13.762;2023-05-29T11:36:08;99800.09;;;24.40;40.43
35704;BME280;21820;51.112;13.762;2023-05-29T11:38:34;99783.44;;;24.31;40.88
35704;BME280;21820;51.112;13.762;2023-05-29T11:41:01;99797.63;;;24.38;41.24
35704;BME280;21820;51.112;13.762;2023-05-29T11:43:26;99807.81;;;24.41;40.94
35704;BME280;21820;51.112;13.762;2023-05-29T11:45:52;99792.06;;;24.41;40.61
35704;BME280;21820;51.112;13.762;2023-05-29T11:48:17;99799.56;;;24.36;41.28
35704;BME280;21820;51.112;13.762;2023-05-29T11:50:43;99792.00;;;24.33;41.23
35704;BME280;21820;51.112;13.762;2023-05-29T11:53:11;99805.03;;;24.43;41.39
35704;BME280;21820;51.112;13.762;2023-05-29T11:55:37;99787.88;;;24.31;40.83
35704;BME280;21820;51.112;13.762;2023-05-29T11:58:03;99804.25;;;24.42;40.79
35704;BME280;21820;51.112;13.762;2023-05-29T12:02:59;99798.97;;;24.42;41.02
35704;BME280;21820;51.112;13.762;2023-05-29T12:05:32;99813.59;;;24.45;41.18
35704;BME280;21820;51.112;13.762;2023-05-29T12:07:58;99804.25;;;24.42;41.27
35704;BME280;21820;51.112;13.762;2023-05-29T12:10:27;99803.25;;;24.43;40.85
35704;BME280;21820;51.112;13.762;2023-05-29T12:12:54;99806.19;;;24.40;40.54
35704;BME280;21820;51.112;13.762;2023-05-29T12:15:21;99796.50;;;24.41;40.25
35704;BME280;21820;51.112;13.762;2023-05-29T12:17:50;99795.22;;;24.45;41.07
35704;BME280;21820;51.112;13.762;2023-05-29T12:20:17;99773.28;;;24.36;40.69
35704;BME280;21820;51.112;13.762;2023-05-29T12:22:44;99792.72;;;24.43;40.61
35704;BME280;21820;51.112;13.762;2023-05-29T12:25:20;99777.66;;;24.45;40.50
35704;BME280;21820;51.112;13.762;2023-05-29T12:27:47;99782.06;;;24.45;40.48
35704;BME280;21820;51.112;13.762;2023-05-29T12:30:14;99786.66;;;24.43;40.85
35704;BME280;21820;51.112;13.762;2023-05-29T12:32:47;99788.47;;;24.42;41.15
35704;BME280;21820;51.112;13.762;2023-05-29T12:35:23;99778.22;;;24.39;40.52
35704;BME280;21820;51.112;13.762;2023-05-29T12:40:20;99776.28;;;24.41;40.67
35704;BME280;21820;51.112;13.762;2023-05-29T12:42:52;99770.06;;;24.42;40.80
35704;BME280;21820;51.112;13.762;2023-05-29T12:45:18;99774.03;;;24.46;40.48
35704;BME280;21820;51.112;13.762;2023-05-29T12:47:55;99769.06;;;24.43;41.03
35704;BME280;21820;51.112;13.762;2023-05-29T12:53:03;99775.47;;;24.41;41.16
35704;BME280;21820;51.112;13.762;2023-05-29T12:55:33;99775.47;;;24.41;40.56
35704;BME280;21820;51.112;13.762;2023-05-29T12:58:02;99776.28;;;24.41;40.98
35704;BME280;21820;51.112;13.762;2023-05-29T13:00:28;99778.75;;;24.43;40.88
35704;BME280;21820;51.112;13.762;2023-05-29T13:02:53;99771.72;;;24.43;40.96
35704;BME280;21820;51.112;13.762;2023-05-29T13:05:18;99770.72;;;24.44;41.17
35704;BME280;21820;51.112;13.762;2023-05-29T13:07:47;99757.53;;;24.36;40.35
35704;BME280;21820;51.112;13.762;2023-05-29T13:10:13;99764.50;;;24.45;40.55
35704;BME280;21820;51.112;13.762;2023-05-29T13:12:38;99769.25;;;24.42;41.08
35704;BME280;21820;51.112;13.762;2023-05-29T13:15:04;99754.31;;;24.42;40.46
35704;BME280;21820;51.112;13.762;2023-05-29T13:17:29;99762.72;;;24.46;40.79